Time;durP1;ratioP1;P1;durP2;ratioP2;P2;SDS_P1;SDS_P2;PMS_P1;PMS_P2;Temp;Humidity;BMP_temperature;BMP_pressure;BME280_temperature;BME280_humidity;BME280_pressure;Samples;Min_cycle;Max_cycle;Signal;HPM_P1;HPM_P2
2022/11/09 00:01:39;;;;;;;44.63;27.70;;;5.20;99.90;;;;;;5054283;28;20231;-66
2022/11/09 00:04:07;;;;;;;42.47;28.63;;;5.20;99.90;;;;;;5058545;28;20205;-68
2022/11/09 00:06:35;;;;;;;50.57;31.80;;;5.20;99.90;;;;;;5074356;28;20254;-67
2022/11/09 00:09:03;;;;;;;37.47;25.17;;;5.20;99.90;;;;;;5073808;28;20211;-67
2022/11/09 00:11:30;;;;;;;33.73;26.47;;;5.30;99.90;;;;;;5070612;28;20219;-67
2022/11/09 00:13:58;;;;;;;35.40;23.77;;;5.20;99.90;;;;;;5073721;28;20231;-66
2022/11/09 00:16:25;;;;;;;28.40;20.63;;;5.20;99.90;;;;;;5073600;28;20205;-67
2022/11/09 00:18:52;;;;;;;29.20;19.83;;;5.20;99.90;;;;;;5073714;28;20209;-68
2022/11/09 00:21:21;;;;;;;30.87;20.80;;;5.30;99.90;;;;;;5055795;28;20210;-67
2022/11/09 00:23:48;;;;;;;29.07;20.23;;;5.30;99.90;;;;;;5053678;28;20210;-66
2022/11/09 00:26:16;;;;;;;30.77;22.30;;;5.30;99.90;;;;;;5053599;28;20205;-68
2022/11/09 00:28:43;;;;;;;30.07;21.83;;;5.30;99.90;;;;;;5054079;28;20561;-68
2022/11/09 00:31:13;;;;;;;27.30;20.30;;;5.30;99.90;;;;;;5066746;28;20620;-66
2022/11/09 00:33:40;;;;;;;28.10;18.97;;;5.30;99.90;;;;;;5055347;28;20236;-67
2022/11/09 00:36:10;;;;;;;32.83;20.60;;;5.30;99.90;;;;;;5053720;28;20205;-68
2022/11/09 00:38:39;;;;;;;31.83;20.60;;;5.30;99.90;;;;;;5056130;28;20651;-66
2022/11/09 00:41:08;;;;;;;29.67;18.13;;;5.40;99.90;;;;;;5052872;28;20240;-66
2022/11/09 00:43:35;;;;;;;28.23;16.97;;;5.40;99.90;;;;;;5066798;28;20209;-68
2022/11/09 00:46:02;;;;;;;29.50;17.70;;;5.40;99.90;;;;;;5073385;28;20209;-67
2022/11/09 00:48:30;;;;;;;28.27;17.40;;;5.50;99.90;;;;;;5062011;28;20240;-67
2022/11/09 00:50:58;;;;;;;29.13;17.40;;;5.50;99.90;;;;;;5053539;28;20205;-69
2022/11/09 00:53:25;;;;;;;31.33;17.57;;;5.50;99.90;;;;;;5065163;28;20698;-67
2022/11/09 00:55:56;;;;;;;23.80;15.63;;;5.60;99.90;;;;;;5073327;28;20534;-66
2022/11/09 00:58:24;;;;;;;21.93;14.20;;;5.60;99.90;;;;;;5072811;28;20207;-66
2022/11/09 01:00:51;;;;;;;21.57;15.03;;;5.70;99.90;;;;;;5073257;28;20205;-67
2022/11/09 01:03:18;;;;;;;24.23;15.40;;;5.70;99.90;;;;;;5071866;28;20205;-67
2022/11/09 01:05:46;;;;;;;23.50;15.47;;;5.70;99.90;;;;;;5072437;28;20227;-67
2022/11/09 01:08:14;;;;;;;26.23;16.17;;;5.70;99.90;;;;;;5072871;28;20681;-69
2022/11/09 01:10:42;;;;;;;28.40;15.27;;;5.80;99.90;;;;;;5073123;28;20207;-66
2022/11/09 01:13:09;;;;;;;25.10;16.27;;;5.80;99.90;;;;;;5062350;28;20813;-68
2022/11/09 01:15:41;;;;;;;27.30;16.07;;;5.80;99.90;;;;;;5051849;28;20205;-68
2022/11/09 01:18:08;;;;;;;25.77;15.73;;;5.90;99.90;;;;;;5052807;28;20190;-67
2022/11/09 01:20:39;;;;;;;24.00;15.53;;;5.90;99.90;;;;;;5052876;28;20793;-69
2022/11/09 01:23:07;;;;;;;28.27;18.20;;;5.90;99.90;;;;;;5063241;28;20204;-66
2022/11/09 01:25:34;;;;;;;24.20;15.90;;;5.90;99.90;;;;;;5072889;28;20314;-67
2022/11/09 01:28:02;;;;;;;27.97;16.90;;;5.90;99.90;;;;;;5072211;28;20215;-67
2022/11/09 01:30:29;;;;;;;23.90;15.93;;;5.90;99.90;;;;;;5072550;28;20211;-67
2022/11/09 01:32:56;;;;;;;25.20;14.83;;;5.90;99.90;;;;;;5071165;28;20200;-66
2022/11/09 01:35:23;;;;;;;26.50;16.77;;;6.00;99.90;;;;;;5072584;28;20204;-67
2022/11/09 01:37:49;;;;;;;33.67;21.33;;;6.00;99.90;;;;;;5072423;28;20204;-67
2022/11/09 01:40:18;;;;;;;27.30;17.57;;;6.00;99.90;;;;;;5069880;28;20207;-67
2022/11/09 01:42:44;;;;;;;33.30;20.30;;;5.90;99.90;;;;;;5052333;28;20200;-67
2022/11/09 01:45:22;;;;;;;24.87;16.13;;;5.90;99.90;;;;;;5051874;28;20212;-68
2022/11/09 01:47:55;;;;;;;26.03;15.07;;;5.90;99.90;;;;;;5052453;28;20661;-66
2022/11/09 01:50:33;;;;;;;19.90;14.07;;;5.90;99.90;;;;;;5051346;28;20190;-68
2022/11/09 01:53:02;;;;;;;23.60;16.07;;;5.90;99.90;;;;;;5052119;28;20189;-68
2022/11/09 01:55:30;;;;;;;21.90;14.70;;;6.00;99.90;;;;;;5052663;28;20212;-67
2022/11/09 01:58:02;;;;;;;22.20;13.13;;;6.00;99.90;;;;;;5052032;28;20205;-67
2022/11/09 02:00:30;;;;;;;21.07;13.47;;;6.00;99.90;;;;;;5051939;28;20271;-66
2022/11/09 02:03:04;;;;;;;33.17;20.33;;;6.00;99.90;;;;;;5052072;28;20655;-67
2022/11/09 02:05:34;;;;;;;32.80;21.03;;;6.00;99.90;;;;;;5052228;28;20199;-68
2022/11/09 02:08:02;;;;;;;28.93;19.97;;;5.90;99.90;;;;;;5051888;28;20235;-67
2022/11/09 02:10:35;;;;;;;28.73;17.40;;;5.90;99.90;;;;;;5052003;28;20205;-67
2022/11/09 02:13:03;;;;;;;34.80;21.17;;;5.90;99.90;;;;;;5071582;28;20195;-67
2022/11/09 02:15:30;;;;;;;29.57;19.87;;;5.90;99.90;;;;;;5072214;28;20659;-66
2022/11/09 02:17:58;;;;;;;33.07;19.97;;;5.90;99.90;;;;;;5071783;28;20662;-66
2022/11/09 02:20:27;;;;;;;31.80;18.07;;;5.80;99.90;;;;;;5070953;28;20208;-69
2022/11/09 02:22:54;;;;;;;41.47;23.80;;;5.80;99.90;;;;;;5051799;28;20201;-67
2022/11/09 02:25:21;;;;;;;36.47;24.03;;;5.80;99.90;;;;;;5051724;28;20217;-66
2022/11/09 02:27:48;;;;;;;39.87;23.87;;;5.80;99.90;;;;;;5051450;28;20201;-66
2022/11/09 02:30:16;;;;;;;42.70;24.90;;;5.70;99.90;;;;;;5052064;28;20205;-68
2022/11/09 02:32:43;;;;;;;34.57;22.20;;;5.70;99.90;;;;;;5050420;28;20288;-69
2022/11/09 02:35:10;;;;;;;40.77;25.03;;;5.70;99.90;;;;;;5051403;28;20221;-69
2022/11/09 02:37:42;;;;;;;37.83;24.30;;;5.70;99.90;;;;;;5051338;28;20231;-68
2022/11/09 02:40:14;;;;;;;39.00;25.33;;;5.60;99.90;;;;;;5051125;28;20229;-68
2022/11/09 02:42:40;;;;;;;42.47;28.10;;;5.60;99.90;;;;;;5052249;28;20205;-67
2022/11/09 02:45:09;;;;;;;46.23;30.57;;;5.50;99.90;;;;;;5071424;28;20563;-68
2022/11/09 02:47:35;;;;;;;50.33;31.47;;;5.50;99.90;;;;;;5071441;28;20208;-68
2022/11/09 02:50:03;;;;;;;46.63;30.47;;;5.40;99.90;;;;;;5071433;28;20760;-67
2022/11/09 02:52:29;;;;;;;47.43;30.47;;;5.30;99.90;;;;;;5070568;28;20596;-68
2022/11/09 02:54:58;;;;;;;50.87;32.80;;;5.30;99.90;;;;;;5071272;28;20228;-68
2022/11/09 02:57:24;;;;;;;58.23;36.07;;;5.20;99.90;;;;;;5071508;28;20218;-68
2022/11/09 02:59:51;;;;;;;60.23;38.00;;;5.20;99.90;;;;;;5066398;28;20205;-69
2022/11/09 03:02:18;;;;;;;57.67;36.17;;;5.10;99.90;;;;;;5067511;28;20208;-67
2022/11/09 03:04:45;;;;;;;53.77;34.80;;;5.00;99.90;;;;;;5071027;28;20662;-68
2022/11/09 03:07:11;;;;;;;58.13;35.90;;;5.00;99.90;;;;;;5057080;28;20666;-69
2022/11/09 03:09:38;;;;;;;65.27;37.97;;;5.00;99.90;;;;;;5050895;28;20308;-67
2022/11/09 03:14:47;;;;;;;77.13;41.93;;;4.80;99.90;;;;;;5050745;28;20221;-68
2022/11/09 03:17:15;;;;;;;84.27;45.53;;;4.80;99.90;;;;;;5051224;28;20205;-70
2022/11/09 03:19:42;;;;;;;86.93;44.63;;;4.80;99.90;;;;;;5050637;28;20692;-68
2022/11/09 03:22:09;;;;;;;94.33;48.70;;;4.70;99.90;;;;;;5051223;28;20201;-67
2022/11/09 03:24:35;;;;;;;93.07;49.10;;;4.70;99.90;;;;;;5051292;28;20197;-69
2022/11/09 03:27:02;;;;;;;92.23;48.23;;;4.60;99.90;;;;;;5050361;28;20201;-68
2022/11/09 03:29:30;;;;;;;91.60;49.30;;;4.60;99.90;;;;;;5051309;28;20208;-68
2022/11/09 03:31:57;;;;;;;83.17;44.47;;;4.70;99.90;;;;;;5050387;28;20712;-69
2022/11/09 03:34:24;;;;;;;86.97;47.53;;;4.60;99.90;;;;;;5050807;28;20225;-68
2022/11/09 03:36:51;;;;;;;67.93;38.30;;;4.60;99.90;;;;;;5051143;28;20694;-69
2022/11/09 03:39:17;;;;;;;55.00;30.67;;;4.60;99.90;;;;;;5053738;28;20205;-68
2022/11/09 03:41:44;;;;;;;43.67;27.27;;;4.60;99.90;;;;;;5063731;28;20235;-69
2022/11/09 03:44:11;;;;;;;38.00;23.73;;;4.60;99.90;;;;;;5064782;28;20203;-68
2022/11/09 03:46:39;;;;;;;36.30;22.17;;;4.70;99.90;;;;;;5074347;28;20568;-68
2022/11/09 03:49:06;;;;;;;35.80;22.80;;;4.70;99.90;;;;;;5083133;28;20205;-67
2022/11/09 03:51:33;;;;;;;35.07;22.43;;;4.70;99.90;;;;;;5068025;28;20205;-68
2022/11/09 03:54:00;;;;;;;35.33;22.73;;;4.80;99.90;;;;;;5091668;28;20226;-69
2022/11/09 03:56:27;;;;;;;29.50;19.97;;;4.80;99.90;;;;;;5085720;28;20228;-69
2022/11/09 03:58:53;;;;;;;31.83;19.97;;;4.80;99.90;;;;;;5067007;28;20229;-67
2022/11/09 04:01:20;;;;;;;30.03;19.57;;;4.90;99.90;;;;;;5076115;28;20291;-68
2022/11/09 04:03:48;;;;;;;28.73;18.77;;;4.90;99.90;;;;;;5063761;28;20205;-69
2022/11/09 04:06:15;;;;;;;30.50;19.30;;;4.90;99.90;;;;;;5067185;28;20605;-69
2022/11/09 04:08:42;;;;;;;28.10;18.27;;;4.90;99.90;;;;;;5081851;28;20204;-68
2022/11/09 04:11:09;;;;;;;28.87;17.90;;;4.90;99.90;;;;;;5092558;28;20231;-68
2022/11/09 04:13:35;;;;;;;24.50;16.97;;;4.90;99.90;;;;;;5067755;28;20213;-67
2022/11/09 04:16:02;;;;;;;27.23;16.33;;;5.00;99.90;;;;;;5052288;28;20208;-69
2022/11/09 04:18:29;;;;;;;26.93;17.13;;;5.00;99.90;;;;;;5052301;28;20205;-68
2022/11/09 04:20:59;;;;;;;23.13;16.00;;;5.00;99.90;;;;;;5052130;28;20213;-69
2022/11/09 04:23:25;;;;;;;21.63;15.87;;;5.10;99.90;;;;;;5055652;28;20209;-69
2022/11/09 04:25:53;;;;;;;25.07;17.00;;;5.10;99.90;;;;;;5088308;28;20192;-68
2022/11/09 04:28:20;;;;;;;28.87;18.87;;;5.20;99.90;;;;;;5082438;28;20207;-66
2022/11/09 04:30:47;;;;;;;28.80;19.43;;;5.20;99.90;;;;;;5069484;28;20200;-66
2022/11/09 04:33:13;;;;;;;30.33;19.17;;;5.20;99.90;;;;;;5086057;28;20299;-66
2022/11/09 04:35:40;;;;;;;28.53;18.63;;;5.20;99.90;;;;;;5075201;28;20232;-65
2022/11/09 04:38:14;;;;;;;30.77;18.90;;;5.20;99.90;;;;;;5072107;28;20210;-66
2022/11/09 04:40:41;;;;;;;28.73;19.13;;;5.20;99.90;;;;;;5076810;28;20235;-66
2022/11/09 04:43:11;;;;;;;32.80;21.20;;;5.20;99.90;;;;;;5070084;28;20701;-67
2022/11/09 04:45:38;;;;;;;35.53;23.93;;;5.20;99.90;;;;;;5063544;28;20547;-67
2022/11/09 04:48:06;;;;;;;33.43;22.17;;;5.20;99.90;;;;;;5078170;28;20608;-67
2022/11/09 04:50:34;;;;;;;33.20;22.50;;;5.20;99.90;;;;;;5073024;28;20197;-65
2022/11/09 04:53:05;;;;;;;35.10;23.00;;;5.30;99.90;;;;;;5073114;28;20243;-65
2022/11/09 04:55:34;;;;;;;32.07;21.30;;;5.30;99.90;;;;;;5073163;28;20533;-68
2022/11/09 04:58:01;;;;;;;30.67;22.17;;;5.30;99.90;;;;;;5087276;28;20203;-66
2022/11/09 05:00:27;;;;;;;29.50;20.13;;;5.30;99.90;;;;;;5092866;28;20200;-65
2022/11/09 05:02:54;;;;;;;32.53;20.20;;;5.30;99.90;;;;;;5093185;28;20210;-66
2022/11/09 05:05:21;;;;;;;32.23;21.67;;;5.30;99.90;;;;;;5064770;28;20227;-65
2022/11/09 05:07:48;;;;;;;32.60;21.37;;;5.30;99.90;;;;;;5064161;28;20203;-64
2022/11/09 05:10:15;;;;;;;31.40;21.57;;;5.30;99.90;;;;;;5072909;28;20200;-66
2022/11/09 05:12:43;;;;;;;33.63;20.97;;;5.30;99.90;;;;;;5072719;28;20211;-65
2022/11/09 05:15:11;;;;;;;34.73;21.70;;;5.30;99.90;;;;;;5072872;28;20230;-65
2022/11/09 05:17:37;;;;;;;30.63;20.23;;;5.30;99.90;;;;;;5072485;28;20215;-64
2022/11/09 05:20:05;;;;;;;30.97;20.67;;;5.30;99.90;;;;;;5072407;28;20201;-66
2022/11/09 05:25:16;;;;;;;30.63;20.37;;;5.20;99.90;;;;;;5052597;28;20266;-64
2022/11/09 05:27:44;;;;;;;32.90;21.40;;;5.20;99.90;;;;;;5065506;28;20201;-65
2022/11/09 05:30:12;;;;;;;30.77;21.10;;;5.20;99.90;;;;;;5072554;28;20205;-65
2022/11/09 05:32:39;;;;;;;34.77;22.63;;;5.20;99.90;;;;;;5071824;28;20203;-65
2022/11/09 05:35:07;;;;;;;40.40;25.03;;;5.20;99.90;;;;;;5072395;28;20270;-65
2022/11/09 05:37:34;;;;;;;41.20;26.80;;;5.20;99.90;;;;;;5071530;28;20200;-66
2022/11/09 05:40:01;;;;;;;39.93;25.47;;;5.10;99.90;;;;;;5079164;28;20658;-66
2022/11/09 05:42:28;;;;;;;50.30;30.80;;;5.10;99.90;;;;;;5058120;28;20277;-65
2022/11/09 05:44:56;;;;;;;45.60;29.97;;;5.10;99.90;;;;;;5052340;28;20197;-66
2022/11/09 05:47:23;;;;;;;51.13;32.27;;;5.20;99.90;;;;;;5052198;28;20720;-67
2022/11/09 05:49:50;;;;;;;49.07;29.23;;;5.20;99.90;;;;;;5064451;28;20201;-65
2022/11/09 05:52:16;;;;;;;62.10;39.00;;;5.20;99.90;;;;;;5072222;28;20204;-65
2022/11/09 05:54:43;;;;;;;61.30;37.70;;;5.20;99.90;;;;;;5071973;28;20229;-66
2022/11/09 05:57:10;;;;;;;60.90;37.73;;;5.20;99.90;;;;;;5072066;28;20219;-66
2022/11/09 05:59:37;;;;;;;61.07;37.50;;;5.20;99.90;;;;;;5070960;28;20650;-67
2022/11/09 06:02:05;;;;;;;54.33;34.90;;;5.20;99.90;;;;;;5071828;28;20211;-65
2022/11/09 06:04:32;;;;;;;45.10;30.07;;;5.20;99.90;;;;;;5072026;28;20573;-65
2022/11/09 10:35:18;;;;;;;11.23;6.97;;;10.70;99.90;;;;;;5129775;27;20554;-68
2022/11/09 10:37:47;;;;;;;11.03;6.20;;;11.50;99.90;;;;;;5129765;28;20194;-69
2022/11/09 10:40:17;;;;;;;8.50;5.23;;;11.60;99.90;;;;;;5128068;27;20299;-67
2022/11/09 10:42:47;;;;;;;9.40;5.50;;;11.70;99.90;;;;;;5130214;27;20507;-70
2022/11/09 10:45:25;;;;;;;12.33;5.00;;;11.70;99.90;;;;;;5105780;28;20580;-69
2022/11/09 10:47:52;;;;;;;9.07;4.70;;;11.80;99.90;;;;;;5109305;28;20246;-68
2022/11/09 10:50:29;;;;;;;8.40;5.00;;;11.80;99.90;;;;;;5109391;28;20294;-68
2022/11/09 10:53:10;;;;;;;10.63;5.90;;;11.90;99.90;;;;;;5109122;28;20560;-67
2022/11/09 10:55:37;;;;;;;17.47;6.87;;;11.90;99.90;;;;;;5107913;28;20344;-69
2022/11/09 10:58:25;;;;;;;9.73;5.77;;;12.00;99.90;;;;;;5108738;28;20207;-68
2022/11/09 11:00:58;;;;;;;9.27;5.97;;;12.00;99.90;;;;;;5098052;28;20292;-69
2022/11/09 11:03:25;;;;;;;12.80;5.77;;;12.00;99.90;;;;;;5108671;28;20191;-68
2022/11/09 11:05:59;;;;;;;12.30;6.67;;;12.00;99.90;;;;;;5107063;28;20575;-69
2022/11/09 11:08:33;;;;;;;12.93;6.47;;;12.10;99.90;;;;;;5108395;28;20297;-72
2022/11/09 11:11:14;;;;;;;10.43;6.40;;;12.10;99.90;;;;;;5108973;28;20212;-69
2022/11/09 11:13:41;;;;;;;10.17;6.23;;;12.10;99.90;;;;;;5106352;28;20546;-69
2022/11/09 11:16:26;;;;;;;11.10;6.83;;;12.10;99.90;;;;;;5108235;28;20207;-68
2022/11/09 11:18:53;;;;;;;9.97;6.80;;;12.10;99.90;;;;;;5107610;28;20199;-69
2022/11/09 11:21:22;;;;;;;11.20;7.10;;;12.10;99.90;;;;;;5108607;28;20567;-70
2022/11/09 11:24:13;;;;;;;10.83;7.30;;;12.10;99.90;;;;;;5107529;28;20205;-69
2022/11/09 11:26:47;;;;;;;10.70;6.73;;;12.10;99.90;;;;;;5107577;28;20210;-68
2022/11/09 11:29:40;;;;;;;13.60;8.30;;;12.10;99.90;;;;;;5107723;28;20191;-69
2022/11/09 11:32:11;;;;;;;12.70;7.60;;;12.10;99.90;;;;;;5103548;28;20204;-69
2022/11/09 11:34:38;;;;;;;16.70;8.13;;;12.10;99.90;;;;;;5100914;28;20232;-71
2022/11/09 11:37:21;;;;;;;14.23;7.10;;;12.10;99.90;;;;;;5093082;28;20252;-70
2022/11/09 11:39:59;;;;;;;10.80;6.80;;;12.10;99.90;;;;;;5074339;28;20557;-69
2022/11/09 11:42:58;;;;;;;12.00;6.97;;;12.20;99.90;;;;;;5074066;28;20195;-68
2022/11/09 11:45:32;;;;;;;11.07;6.80;;;12.10;99.90;;;;;;5087260;28;20601;-69
2022/11/09 11:48:17;;;;;;;9.50;7.23;;;12.20;99.90;;;;;;5093618;28;20592;-68
2022/11/09 11:50:46;;;;;;;16.73;7.60;;;12.10;99.90;;;;;;5094185;28;20210;-68
2022/11/09 11:53:24;;;;;;;12.93;7.60;;;12.10;99.90;;;;;;5094038;28;20228;-68
2022/11/09 11:56:18;;;;;;;11.27;7.17;;;12.10;99.90;;;;;;5094162;28;20188;-69
2022/11/09 11:58:56;;;;;;;12.37;7.10;;;12.20;99.90;;;;;;5092286;28;20192;-68
2022/11/09 12:01:37;;;;;;;12.07;7.17;;;12.20;99.90;;;;;;5083462;28;20188;-70
2022/11/09 12:04:21;;;;;;;14.90;8.00;;;12.20;99.90;;;;;;5094373;28;20191;-69
2022/11/09 12:07:00;;;;;;;11.40;7.50;;;12.30;99.90;;;;;;5088604;28;20204;-67
2022/11/09 12:09:43;;;;;;;11.87;7.10;;;12.30;99.90;;;;;;5093942;28;20200;-68
2022/11/09 12:12:22;;;;;;;11.97;6.97;;;12.30;99.90;;;;;;5093760;28;20211;-70
2022/11/09 12:15:05;;;;;;;12.73;7.03;;;12.30;99.90;;;;;;5093547;28;20703;-69
2022/11/09 12:17:43;;;;;;;11.50;7.57;;;12.30;99.90;;;;;;5093961;28;20680;-69
2022/11/09 12:20:28;;;;;;;14.50;7.37;;;12.30;99.90;;;;;;5092734;28;20649;-69
2022/11/09 12:23:15;;;;;;;13.00;7.10;;;12.30;99.90;;;;;;5093858;28;20192;-68
2022/11/09 12:25:50;;;;;;;13.33;7.73;;;12.30;99.90;;;;;;5092201;28;20202;-69
2022/11/09 12:28:43;;;;;;;11.90;7.50;;;12.30;99.90;;;;;;5087734;28;20192;-69
2022/11/09 12:31:20;;;;;;;13.80;7.87;;;12.30;99.90;;;;;;5091341;28;20305;-68
2022/11/09 12:33:52;;;;;;;11.90;7.73;;;12.30;99.90;;;;;;5090859;28;20236;-68
2022/11/09 12:36:23;;;;;;;11.17;7.73;;;12.30;99.90;;;;;;5085226;28;20232;-71
2022/11/09 12:38:59;;;;;;;12.17;7.87;;;12.30;99.90;;;;;;5087489;28;20210;-68
2022/11/09 12:41:31;;;;;;;17.10;11.43;;;12.30;99.90;;;;;;5089157;28;20239;-68
2022/11/09 12:44:03;;;;;;;16.43;10.50;;;12.30;99.90;;;;;;5089617;28;20188;-71
2022/11/09 12:46:35;;;;;;;13.90;8.17;;;12.20;99.90;;;;;;5092466;28;20659;-69
2022/11/09 12:49:04;;;;;;;13.10;8.40;;;12.20;99.90;;;;;;5093519;28;20230;-69
2022/11/09 12:51:31;;;;;;;13.73;8.33;;;12.20;99.90;;;;;;5086433;28;20219;-68
2022/11/09 12:53:59;;;;;;;13.60;7.53;;;12.20;99.90;;;;;;5092304;28;20227;-69
2022/11/09 12:56:32;;;;;;;13.77;8.37;;;12.20;99.90;;;;;;5092990;28;20204;-68
2022/11/09 12:59:21;;;;;;;12.27;7.87;;;12.20;99.90;;;;;;5093189;28;20558;-68
2022/11/09 13:01:52;;;;;;;13.73;7.90;;;12.20;99.90;;;;;;5091341;28;20200;-69
2022/11/09 13:04:22;;;;;;;12.57;8.70;;;12.20;99.90;;;;;;5072715;28;20832;-69
2022/11/09 13:07:32;;;;;;;14.93;8.43;;;12.20;99.90;;;;;;5078661;28;20677;-70
2022/11/09 13:10:02;;;;;;;14.43;8.73;;;12.10;99.90;;;;;;4997614;28;20309;-69
2022/11/09 13:12:41;;;;;;;15.53;8.80;;;12.10;99.90;;;;;;4994019;28;20742;-69
2022/11/09 13:15:25;;;;;;;17.30;9.43;;;12.10;99.90;;;;;;5003615;28;20277;-68
2022/11/09 13:18:00;;;;;;;15.20;9.13;;;12.10;99.90;;;;;;5000864;28;20210;-69
2022/11/09 13:20:44;;;;;;;13.03;8.43;;;12.00;99.90;;;;;;5004630;28;20586;-69
2022/11/09 13:23:26;;;;;;;16.50;9.57;;;12.00;99.90;;;;;;5005198;28;20206;-68
2022/11/09 13:25:54;;;;;;;14.40;9.03;;;12.00;99.90;;;;;;5010173;28;20282;-68
2022/11/09 13:29:08;;;;;;;15.00;8.80;;;12.00;99.90;;;;;;5009190;28;20206;-69
2022/11/09 13:32:11;;;;;;;15.80;9.10;;;11.90;99.90;;;;;;4950273;29;20220;-68
2022/11/09 13:34:45;;;;;;;15.87;8.80;;;11.80;99.90;;;;;;5008945;28;20242;-69
2022/11/09 13:37:48;;;;;;;15.83;9.70;;;11.80;99.90;;;;;;4993167;28;20202;-69
2022/11/09 13:40:40;;;;;;;15.97;10.30;;;11.70;99.90;;;;;;5013361;28;20212;-69
2022/11/09 13:43:20;;;;;;;14.93;8.87;;;11.70;99.90;;;;;;5072134;28;20582;-69
2022/11/09 13:45:48;;;;;;;13.43;8.30;;;11.60;99.90;;;;;;5072157;28;20630;-71
2022/11/09 13:48:36;;;;;;;15.17;8.93;;;11.60;99.90;;;;;;5077657;28;20200;-68
2022/11/09 13:51:06;;;;;;;15.57;8.20;;;11.60;99.90;;;;;;5092248;28;20208;-67
2022/11/09 13:53:51;;;;;;;14.80;8.43;;;11.50;99.90;;;;;;5091525;28;20322;-69
2022/11/09 13:56:24;;;;;;;11.27;7.67;;;11.50;99.90;;;;;;5077224;28;20447;-68
2022/11/09 13:58:52;;;;;;;17.27;8.53;;;11.40;99.90;;;;;;5074741;28;20188;-69
2022/11/09 14:01:29;;;;;;;15.17;7.93;;;11.40;99.90;;;;;;5091816;28;20210;-69
2022/11/09 14:03:56;;;;;;;15.87;8.07;;;11.40;99.90;;;;;;5090865;28;20198;-68
2022/11/09 14:06:25;;;;;;;14.73;8.93;;;11.30;99.90;;;;;;5090522;28;20218;-68
2022/11/09 14:08:52;;;;;;;13.80;8.40;;;11.30;99.90;;;;;;5087999;28;20670;-68
2022/11/09 14:11:46;;;;;;;15.17;8.50;;;11.30;99.90;;;;;;5091656;28;20196;-68
2022/11/09 14:14:46;;;;;;;14.13;8.43;;;11.20;99.90;;;;;;5091412;28;20224;-68
2022/11/09 14:17:17;;;;;;;15.80;9.07;;;11.20;99.90;;;;;;5071495;28;20193;-68
2022/11/09 14:19:51;;;;;;;14.37;8.90;;;11.10;99.90;;;;;;5072009;28;20668;-68
2022/11/09 14:22:20;;;;;;;14.63;9.30;;;11.10;99.90;;;;;;5071653;28;20200;-70
2022/11/09 14:24:47;;;;;;;16.40;10.03;;;11.00;99.90;;;;;;5073181;28;20653;-69
2022/11/09 14:27:17;;;;;;;14.33;9.43;;;11.00;99.90;;;;;;5091635;28;20417;-70
2022/11/09 18:24:22;;;;;;;41.10;25.80;;;6.30;99.90;;;;;;5128839;27;20540;-66
2022/11/09 18:26:49;;;;;;;42.33;25.63;;;7.20;99.90;;;;;;5124360;28;20229;-69
2022/11/09 18:29:16;;;;;;;44.90;27.27;;;7.20;99.90;;;;;;5126434;28;20244;-69
2022/11/09 18:31:43;;;;;;;40.27;26.07;;;7.20;99.90;;;;;;5118695;28;20215;-68
2022/11/09 18:34:10;;;;;;;41.40;25.97;;;7.20;99.90;;;;;;5114636;28;20215;-69
2022/11/09 18:36:37;;;;;;;42.90;25.00;;;7.20;99.90;;;;;;5129691;28;20656;-68
2022/11/09 18:39:04;;;;;;;41.37;25.53;;;7.20;99.90;;;;;;5112229;28;20200;-69
2022/11/09 18:41:32;;;;;;;42.50;26.87;;;7.20;99.90;;;;;;5129480;28;20577;-66
2022/11/09 18:43:59;;;;;;;39.63;25.77;;;7.20;99.90;;;;;;5129423;28;20202;-66
2022/11/09 18:46:29;;;;;;;42.97;25.80;;;7.20;99.90;;;;;;5130176;28;20660;-67
2022/11/09 18:48:56;;;;;;;40.53;25.33;;;7.20;99.90;;;;;;5116434;28;20207;-68
2022/11/09 18:51:23;;;;;;;42.97;26.07;;;7.20;99.90;;;;;;5109413;28;20204;-68
2022/11/09 18:53:50;;;;;;;42.73;26.30;;;7.10;99.90;;;;;;5112563;28;20210;-67
2022/11/09 18:56:22;;;;;;;47.77;27.37;;;7.10;99.90;;;;;;5129391;28;20229;-70
2022/11/09 18:58:52;;;;;;;46.50;27.67;;;7.10;99.90;;;;;;5129922;28;20613;-67
2022/11/09 19:01:19;;;;;;;43.50;26.47;;;7.10;99.90;;;;;;5128006;28;20210;-67
2022/11/09 19:03:47;;;;;;;48.50;29.43;;;7.10;99.90;;;;;;5107881;28;20676;-67
2022/11/09 19:06:16;;;;;;;46.03;28.43;;;7.00;99.90;;;;;;5087260;28;20226;-69
2022/11/09 19:11:28;;;;;;;46.03;27.43;;;7.00;99.90;;;;;;5088777;28;20701;-66
2022/11/09 19:13:57;;;;;;;46.97;29.37;;;6.90;99.90;;;;;;5088462;28;20469;-66
2022/11/09 19:16:25;;;;;;;48.73;28.67;;;6.90;99.90;;;;;;5073836;28;20211;-66
2022/11/09 19:18:52;;;;;;;46.33;28.43;;;6.90;99.90;;;;;;5073139;28;20278;-67
2022/11/09 19:21:37;;;;;;;48.20;28.90;;;6.90;99.90;;;;;;5078936;28;20203;-67
2022/11/09 19:24:04;;;;;;;48.57;28.50;;;6.90;99.90;;;;;;5074508;28;20225;-67
2022/11/09 19:26:31;;;;;;;48.93;29.43;;;6.80;99.90;;;;;;5074901;28;20211;-68
2022/11/09 19:29:00;;;;;;;46.73;27.90;;;6.80;99.90;;;;;;5075145;28;20208;-66
2022/11/09 19:31:27;;;;;;;49.53;29.27;;;6.70;99.90;;;;;;5074599;28;20205;-67
2022/11/09 19:33:53;;;;;;;46.67;29.03;;;6.80;99.90;;;;;;5077748;28;20708;-71
2022/11/09 19:36:23;;;;;;;49.83;29.23;;;6.70;99.90;;;;;;5074852;28;20223;-69
2022/11/09 19:38:50;;;;;;;45.13;27.50;;;6.70;99.90;;;;;;5078349;28;20204;-67
2022/11/09 19:41:17;;;;;;;50.40;29.37;;;6.70;99.90;;;;;;5095223;28;20210;-67
2022/11/09 19:43:43;;;;;;;47.00;29.20;;;6.70;99.90;;;;;;5083939;28;20287;-66
2022/11/09 19:46:11;;;;;;;48.67;29.30;;;6.70;99.90;;;;;;5074322;28;20574;-69
2022/11/09 19:48:44;;;;;;;48.10;30.13;;;6.60;99.90;;;;;;5073394;28;20220;-67
2022/11/09 19:51:11;;;;;;;58.10;34.37;;;6.60;99.90;;;;;;5074957;28;20639;-67
2022/11/09 19:53:37;;;;;;;63.30;35.43;;;6.60;99.90;;;;;;5073933;28;20319;-66
2022/11/09 19:56:07;;;;;;;58.47;34.17;;;6.60;99.90;;;;;;5074411;28;20201;-70
2022/11/09 19:58:34;;;;;;;52.67;32.63;;;6.60;99.90;;;;;;5074108;28;20213;-68
2022/11/09 20:01:02;;;;;;;59.27;32.57;;;6.60;99.90;;;;;;5074489;28;20205;-70
2022/11/09 20:03:30;;;;;;;56.80;32.23;;;6.60;99.90;;;;;;5074956;28;20258;-71
2022/11/09 20:05:58;;;;;;;53.67;32.70;;;6.60;99.90;;;;;;5075879;28;20211;-71
2022/11/09 20:08:25;;;;;;;57.20;33.40;;;6.60;99.90;;;;;;5087589;28;20200;-72
2022/11/09 20:10:52;;;;;;;56.83;32.60;;;6.60;99.90;;;;;;5089962;28;20219;-68
2022/11/09 20:13:18;;;;;;;61.07;32.57;;;6.60;99.90;;;;;;5072240;28;20204;-70
2022/11/09 20:15:45;;;;;;;58.50;34.60;;;6.60;99.90;;;;;;5073502;28;20598;-68
2022/11/09 20:18:12;;;;;;;73.17;43.00;;;6.60;99.90;;;;;;5072101;28;20204;-68
2022/11/09 20:20:41;;;;;;;67.33;38.90;;;6.60;99.90;;;;;;5071032;28;20209;-69
2022/11/09 20:23:07;;;;;;;64.23;36.80;;;6.60;99.90;;;;;;5061437;28;20237;-68
2022/11/09 20:25:34;;;;;;;60.43;35.07;;;6.50;99.90;;;;;;5076085;28;20222;-69
2022/11/09 20:28:01;;;;;;;63.73;35.30;;;6.60;99.90;;;;;;5078791;28;20318;-66
2022/11/09 20:30:28;;;;;;;58.13;34.63;;;6.60;99.90;;;;;;5074081;28;20209;-65
2022/11/09 20:32:54;;;;;;;64.57;36.93;;;6.60;99.90;;;;;;5074133;28;20312;-70
2022/11/09 20:35:21;;;;;;;66.53;37.20;;;6.60;99.90;;;;;;5081413;28;20226;-69
2022/11/09 20:37:49;;;;;;;63.17;35.50;;;6.50;99.90;;;;;;5093289;28;20212;-71
2022/11/09 20:40:16;;;;;;;61.97;34.63;;;6.50;99.90;;;;;;5082658;28;20513;-69
2022/11/09 20:42:43;;;;;;;58.77;34.07;;;6.50;99.90;;;;;;5072937;28;20223;-67
2022/11/09 20:45:10;;;;;;;61.33;35.67;;;6.50;99.90;;;;;;5074138;28;20193;-68
2022/11/09 20:47:37;;;;;;;61.60;36.03;;;6.50;99.90;;;;;;5083389;28;20219;-67
2022/11/09 20:50:04;;;;;;;61.07;36.07;;;6.50;99.90;;;;;;5091312;28;20196;-70
2022/11/09 20:52:31;;;;;;;60.53;35.70;;;6.40;99.90;;;;;;5078061;28;20865;-66
2022/11/09 20:54:59;;;;;;;63.70;35.63;;;6.40;99.90;;;;;;5073182;28;20609;-69
2022/11/09 20:57:26;;;;;;;56.63;34.00;;;6.40;99.90;;;;;;5073211;28;20214;-67
2022/11/09 20:59:53;;;;;;;58.60;35.57;;;6.40;99.90;;;;;;5080680;28;20564;-68
2022/11/09 21:02:19;;;;;;;57.13;34.20;;;6.40;99.90;;;;;;5071212;28;20193;-68
2022/11/09 21:04:46;;;;;;;58.17;35.73;;;6.30;99.90;;;;;;5078286;28;20203;-67
2022/11/09 21:07:13;;;;;;;59.87;35.80;;;6.30;99.90;;;;;;5076706;28;20201;-66
2022/11/09 21:09:40;;;;;;;59.57;35.53;;;6.30;99.90;;;;;;5071929;28;20197;-67
2022/11/09 21:12:26;;;;;;;59.63;36.97;;;6.30;99.90;;;;;;5071994;28;20211;-69
2022/11/09 21:14:52;;;;;;;66.67;38.83;;;6.30;99.90;;;;;;5052543;28;20209;-70
2022/11/09 21:17:20;;;;;;;61.60;36.00;;;6.30;99.90;;;;;;5052109;28;20207;-68
2022/11/09 21:19:47;;;;;;;59.80;37.50;;;6.30;99.90;;;;;;5061706;28;20287;-67
2022/11/09 21:22:14;;;;;;;59.30;36.17;;;6.30;99.90;;;;;;5075708;28;20213;-66
2022/11/09 21:30:11;;;;;;;77.33;45.70;;;6.30;99.90;;;;;;5072064;28;20613;-66
2022/11/09 21:32:37;;;;;;;70.73;42.30;;;6.30;99.90;;;;;;5072090;28;20204;-67